sensor_id;sensor_type;location;lat;lon;timestamp;P1;durP1;ratioP1;P2;durP2;ratioP2
56997;SDS011;42890;44.244;22.530;2024-02-26T00:00:39;17.88;;;16.20;;
56997;SDS011;42890;44.244;22.530;2024-02-26T00:03:05;16.50;;;14.80;;
56997;SDS011;42890;44.244;22.530;2024-02-26T00:05:32;15.52;;;14.13;;
56997;SDS011;42890;44.244;22.530;2024-02-26T00:07:58;17.10;;;15.35;;
56997;SDS011;42890;44.244;22.530;2024-02-26T00:10:24;16.63;;;14.80;;
56997;SDS011;42890;44.244;22.530;2024-02-26T00:12:50;16.38;;;14.82;;
56997;SDS011;42890;44.244;22.530;2024-02-26T00:15:16;17.85;;;16.17;;
56997;SDS011;42890;44.244;22.530;2024-02-26T00:17:42;16.65;;;15.15;;
56997;SDS011;42890;44.244;22.530;2024-02-26T00:20:10;20.95;;;18.77;;
56997;SDS011;42890;44.244;22.530;2024-02-26T00:22:36;19.20;;;17.33;;
56997;SDS011;42890;44.244;22.530;2024-02-26T00:25:03;18.77;;;16.83;;
56997;SDS011;42890;44.244;22.530;2024-02-26T00:27:30;18.10;;;16.50;;
56997;SDS011;42890;44.244;22.530;2024-02-26T00:29:56;18.75;;;16.70;;
56997;SDS011;42890;44.244;22.530;2024-02-26T00:32:22;18.17;;;16.48;;
56997;SDS011;42890;44.244;22.530;2024-02-26T00:34:48;17.27;;;15.73;;
56997;SDS011;42890;44.244;22.530;2024-02-26T00:37:15;17.77;;;16.08;;
56997;SDS011;42890;44.244;22.530;2024-02-26T00:39:41;18.35;;;16.60;;
56997;SDS011;42890;44.244;22.530;2024-02-26T00:42:07;18.15;;;16.42;;
56997;SDS011;42890;44.244;22.530;2024-02-26T00:44:34;18.00;;;16.23;;
56997;SDS011;42890;44.244;22.530;2024-02-26T00:47:00;17.35;;;15.73;;
56997;SDS011;42890;44.244;22.530;2024-02-26T00:49:27;17.48;;;15.77;;
56997;SDS011;42890;44.244;22.530;2024-02-26T00:51:53;17.50;;;15.95;;
56997;SDS011;42890;44.244;22.530;2024-02-26T00:54:19;17.48;;;15.73;;
56997;SDS011;42890;44.244;22.530;2024-02-26T00:56:45;19.27;;;17.27;;
56997;SDS011;42890;44.244;22.530;2024-02-26T00:59:12;16.98;;;15.40;;
56997;SDS011;42890;44.244;22.530;2024-02-26T01:01:38;18.08;;;16.38;;
56997;SDS011;42890;44.244;22.530;2024-02-26T01:04:04;18.67;;;16.88;;
56997;SDS011;42890;44.244;22.530;2024-02-26T01:06:30;18.20;;;16.48;;
56997;SDS011;42890;44.244;22.530;2024-02-26T01:08:56;17.48;;;15.68;;
56997;SDS011;42890;44.244;22.530;2024-02-26T01:11:23;17.98;;;16.38;;
56997;SDS011;42890;44.244;22.530;2024-02-26T01:13:50;17.25;;;15.77;;
56997;SDS011;42890;44.244;22.530;2024-02-26T01:16:21;16.95;;;15.35;;
56997;SDS011;42890;44.244;22.530;2024-02-26T01:18:47;17.63;;;16.02;;
56997;SDS011;42890;44.244;22.530;2024-02-26T01:21:13;18.55;;;16.95;;
56997;SDS011;42890;44.244;22.530;2024-02-26T01:23:39;16.60;;;15.10;;
56997;SDS011;42890;44.244;22.530;2024-02-26T01:26:06;16.73;;;15.13;;
56997;SDS011;42890;44.244;22.530;2024-02-26T01:28:32;16.23;;;14.73;;
56997;SDS011;42890;44.244;22.530;2024-02-26T01:30:58;16.05;;;14.55;;
56997;SDS011;42890;44.244;22.530;2024-02-26T01:33:25;17.15;;;14.65;;
56997;SDS011;42890;44.244;22.530;2024-02-26T01:35:51;16.45;;;14.75;;
56997;SDS011;42890;44.244;22.530;2024-02-26T01:38:18;15.43;;;13.93;;
56997;SDS011;42890;44.244;22.530;2024-02-26T01:40:44;16.23;;;14.55;;
56997;SDS011;42890;44.244;22.530;2024-02-26T01:43:10;17.52;;;15.77;;
56997;SDS011;42890;44.244;22.530;2024-02-26T01:45:36;16.40;;;14.80;;
56997;SDS011;42890;44.244;22.530;2024-02-26T01:48:03;17.13;;;15.40;;
56997;SDS011;42890;44.244;22.530;2024-02-26T01:50:29;17.80;;;15.90;;
56997;SDS011;42890;44.244;22.530;2024-02-26T01:52:55;22.92;;;20.52;;
56997;SDS011;42890;44.244;22.530;2024-02-26T01:55:22;25.58;;;22.75;;
56997;SDS011;42890;44.244;22.530;2024-02-26T01:57:49;25.70;;;23.15;;
56997;SDS011;42890;44.244;22.530;2024-02-26T02:00:17;22.25;;;20.08;;
56997;SDS011;42890;44.244;22.530;2024-02-26T02:02:44;22.98;;;20.58;;
56997;SDS011;42890;44.244;22.530;2024-02-26T02:05:12;25.75;;;23.08;;
56997;SDS011;42890;44.244;22.530;2024-02-26T02:07:39;22.98;;;20.77;;
56997;SDS011;42890;44.244;22.530;2024-02-26T02:10:06;23.40;;;20.73;;
56997;SDS011;42890;44.244;22.530;2024-02-26T02:12:33;37.05;;;28.88;;
56997;SDS011;42890;44.244;22.530;2024-02-26T02:14:59;28.33;;;22.98;;
56997;SDS011;42890;44.244;22.530;2024-02-26T02:17:26;36.10;;;26.30;;
56997;SDS011;42890;44.244;22.530;2024-02-26T02:19:52;19.70;;;17.80;;
56997;SDS011;42890;44.244;22.530;2024-02-26T02:22:18;20.17;;;18.08;;
56997;SDS011;42890;44.244;22.530;2024-02-26T02:24:45;21.55;;;18.02;;
56997;SDS011;42890;44.244;22.530;2024-02-26T02:27:11;18.02;;;16.08;;
56997;SDS011;42890;44.244;22.530;2024-02-26T02:29:37;20.23;;;16.27;;
56997;SDS011;42890;44.244;22.530;2024-02-26T02:32:04;19.63;;;17.55;;
56997;SDS011;42890;44.244;22.530;2024-02-26T02:34:31;22.38;;;20.02;;
56997;SDS011;42890;44.244;22.530;2024-02-26T02:36:57;21.63;;;18.65;;
56997;SDS011;42890;44.244;22.530;2024-02-26T02:39:24;21.10;;;17.75;;
56997;SDS011;42890;44.244;22.530;2024-02-26T02:41:50;28.88;;;25.90;;
56997;SDS011;42890;44.244;22.530;2024-02-26T02:44:16;27.30;;;24.17;;
56997;SDS011;42890;44.244;22.530;2024-02-26T02:46:42;23.40;;;21.00;;
56997;SDS011;42890;44.244;22.530;2024-02-26T02:49:09;18.73;;;16.92;;
56997;SDS011;42890;44.244;22.530;2024-02-26T02:51:36;18.92;;;16.38;;
56997;SDS011;42890;44.244;22.530;2024-02-26T02:54:02;16.25;;;14.55;;
56997;SDS011;42890;44.244;22.530;2024-02-26T02:56:28;16.48;;;14.57;;
56997;SDS011;42890;44.244;22.530;2024-02-26T02:58:54;19.55;;;17.52;;
56997;SDS011;42890;44.244;22.530;2024-02-26T03:01:21;18.40;;;16.65;;
56997;SDS011;42890;44.244;22.530;2024-02-26T03:03:47;19.60;;;17.70;;
56997;SDS011;42890;44.244;22.530;2024-02-26T03:06:13;22.15;;;20.00;;
56997;SDS011;42890;44.244;22.530;2024-02-26T03:08:39;31.33;;;28.02;;
56997;SDS011;42890;44.244;22.530;2024-02-26T03:11:07;22.98;;;20.45;;
56997;SDS011;42890;44.244;22.530;2024-02-26T03:13:33;20.88;;;18.77;;
56997;SDS011;42890;44.244;22.530;2024-02-26T03:16:04;22.15;;;19.70;;
56997;SDS011;42890;44.244;22.530;2024-02-26T03:18:30;25.45;;;19.05;;
56997;SDS011;42890;44.244;22.530;2024-02-26T03:20:56;34.17;;;23.88;;
56997;SDS011;42890;44.244;22.530;2024-02-26T03:23:22;23.58;;;20.70;;
56997;SDS011;42890;44.244;22.530;2024-02-26T03:25:49;30.30;;;23.90;;
56997;SDS011;42890;44.244;22.530;2024-02-26T03:28:15;37.63;;;27.10;;
56997;SDS011;42890;44.244;22.530;2024-02-26T03:30:41;28.67;;;19.98;;
56997;SDS011;42890;44.244;22.530;2024-02-26T03:33:07;24.35;;;18.58;;
56997;SDS011;42890;44.244;22.530;2024-02-26T03:35:33;28.15;;;21.10;;
56997;SDS011;42890;44.244;22.530;2024-02-26T03:37:59;20.60;;;18.50;;
56997;SDS011;42890;44.244;22.530;2024-02-26T03:40:25;23.42;;;17.90;;
56997;SDS011;42890;44.244;22.530;2024-02-26T03:42:51;21.05;;;18.75;;
56997;SDS011;42890;44.244;22.530;2024-02-26T03:45:19;24.70;;;20.13;;
56997;SDS011;42890;44.244;22.530;2024-02-26T03:47:45;26.35;;;20.92;;
56997;SDS011;42890;44.244;22.530;2024-02-26T03:50:11;25.48;;;19.45;;
56997;SDS011;42890;44.244;22.530;2024-02-26T03:52:37;19.73;;;17.83;;
56997;SDS011;42890;44.244;22.530;2024-02-26T03:55:03;19.27;;;17.35;;
56997;SDS011;42890;44.244;22.530;2024-02-26T03:57:30;19.77;;;17.75;;
56997;SDS011;42890;44.244;22.530;2024-02-26T03:59:56;19.13;;;17.38;;
56997;SDS011;42890;44.244;22.530;2024-02-26T04:02:22;19.60;;;17.80;;
56997;SDS011;42890;44.244;22.530;2024-02-26T04:04:48;28.00;;;25.20;;
56997;SDS011;42890;44.244;22.530;2024-02-26T04:07:15;24.33;;;21.83;;
56997;SDS011;42890;44.244;22.530;2024-02-26T04:09:41;25.80;;;22.98;;
56997;SDS011;42890;44.244;22.530;2024-02-26T04:12:08;22.77;;;20.38;;
56997;SDS011;42890;44.244;22.530;2024-02-26T04:14:35;24.08;;;21.45;;
56997;SDS011;42890;44.244;22.530;2024-02-26T04:17:01;21.80;;;19.75;;
56997;SDS011;42890;44.244;22.530;2024-02-26T04:19:28;21.38;;;19.20;;
56997;SDS011;42890;44.244;22.530;2024-02-26T04:21:54;31.65;;;28.48;;
56997;SDS011;42890;44.244;22.530;2024-02-26T04:24:20;30.85;;;27.75;;
56997;SDS011;42890;44.244;22.530;2024-02-26T04:26:46;24.30;;;21.33;;
56997;SDS011;42890;44.244;22.530;2024-02-26T04:29:14;25.27;;;22.55;;
56997;SDS011;42890;44.244;22.530;2024-02-26T04:31:41;32.80;;;29.17;;
56997;SDS011;42890;44.244;22.530;2024-02-26T04:34:08;29.30;;;25.50;;
56997;SDS011;42890;44.244;22.530;2024-02-26T04:36:34;22.45;;;20.17;;
56997;SDS011;42890;44.244;22.530;2024-02-26T04:39:00;22.33;;;20.30;;
56997;SDS011;42890;44.244;22.530;2024-02-26T04:41:27;21.75;;;19.50;;
56997;SDS011;42890;44.244;22.530;2024-02-26T04:43:53;30.10;;;23.77;;
56997;SDS011;42890;44.244;22.530;2024-02-26T04:46:19;34.20;;;30.58;;
56997;SDS011;42890;44.244;22.530;2024-02-26T04:48:47;38.60;;;34.55;;
56997;SDS011;42890;44.244;22.530;2024-02-26T04:51:13;27.67;;;24.98;;
56997;SDS011;42890;44.244;22.530;2024-02-26T04:53:39;26.38;;;23.63;;
56997;SDS011;42890;44.244;22.530;2024-02-26T04:56:06;36.38;;;32.47;;
56997;SDS011;42890;44.244;22.530;2024-02-26T04:58:32;33.25;;;29.75;;
56997;SDS011;42890;44.244;22.530;2024-02-26T05:00:58;23.02;;;20.63;;
56997;SDS011;42890;44.244;22.530;2024-02-26T05:03:24;22.10;;;19.67;;
56997;SDS011;42890;44.244;22.530;2024-02-26T05:05:50;26.98;;;24.17;;
56997;SDS011;42890;44.244;22.530;2024-02-26T05:08:16;27.23;;;24.38;;
56997;SDS011;42890;44.244;22.530;2024-02-26T05:10:44;27.60;;;24.70;;
56997;SDS011;42890;44.244;22.530;2024-02-26T05:13:10;33.92;;;30.42;;
56997;SDS011;42890;44.244;22.530;2024-02-26T05:15:37;49.67;;;44.22;;
56997;SDS011;42890;44.244;22.530;2024-02-26T05:18:03;225.85;;;96.05;;
56997;SDS011;42890;44.244;22.530;2024-02-26T05:20:29;223.05;;;109.13;;
56997;SDS011;42890;44.244;22.530;2024-02-26T05:22:56;58.90;;;48.95;;
56997;SDS011;42890;44.244;22.530;2024-02-26T05:25:23;48.80;;;41.03;;
56997;SDS011;42890;44.244;22.530;2024-02-26T05:27:50;46.08;;;41.38;;
56997;SDS011;42890;44.244;22.530;2024-02-26T05:30:16;55.30;;;49.78;;
56997;SDS011;42890;44.244;22.530;2024-02-26T05:32:42;63.28;;;56.42;;
56997;SDS011;42890;44.244;22.530;2024-02-26T05:35:08;124.72;;;81.25;;
56997;SDS011;42890;44.244;22.530;2024-02-26T05:37:34;148.98;;;92.18;;
56997;SDS011;42890;44.244;22.530;2024-02-26T05:40:01;212.50;;;125.10;;
56997;SDS011;42890;44.244;22.530;2024-02-26T05:42:29;201.75;;;126.15;;
56997;SDS011;42890;44.244;22.530;2024-02-26T05:44:55;131.48;;;84.68;;
56997;SDS011;42890;44.244;22.530;2024-02-26T05:47:22;87.63;;;64.40;;
56997;SDS011;42890;44.244;22.530;2024-02-26T05:49:48;156.23;;;91.70;;
56997;SDS011;42890;44.244;22.530;2024-02-26T05:52:14;392.02;;;211.00;;
56997;SDS011;42890;44.244;22.530;2024-02-26T05:54:40;157.35;;;92.90;;
56997;SDS011;42890;44.244;22.530;2024-02-26T05:57:06;131.10;;;79.90;;
56997;SDS011;42890;44.244;22.530;2024-02-26T05:59:32;131.82;;;77.35;;
56997;SDS011;42890;44.244;22.530;2024-02-26T06:01:58;64.05;;;54.47;;
56997;SDS011;42890;44.244;22.530;2024-02-26T06:04:25;98.68;;;70.00;;
56997;SDS011;42890;44.244;22.530;2024-02-26T06:06:51;72.68;;;54.83;;
56997;SDS011;42890;44.244;22.530;2024-02-26T06:09:17;202.32;;;124.65;;
56997;SDS011;42890;44.244;22.530;2024-02-26T06:11:43;195.50;;;115.65;;
56997;SDS011;42890;44.244;22.530;2024-02-26T06:14:09;152.23;;;95.07;;
56997;SDS011;42890;44.244;22.530;2024-02-26T06:16:38;125.80;;;76.72;;
56997;SDS011;42890;44.244;22.530;2024-02-26T06:19:04;110.70;;;74.25;;
56997;SDS011;42890;44.244;22.530;2024-02-26T06:21:30;123.65;;;80.70;;
56997;SDS011;42890;44.244;22.530;2024-02-26T06:23:56;170.13;;;102.88;;
56997;SDS011;42890;44.244;22.530;2024-02-26T06:26:23;133.40;;;80.80;;
56997;SDS011;42890;44.244;22.530;2024-02-26T06:28:49;96.20;;;67.93;;
56997;SDS011;42890;44.244;22.530;2024-02-26T06:31:17;115.85;;;72.75;;
56997;SDS011;42890;44.244;22.530;2024-02-26T06:33:43;138.27;;;81.40;;
56997;SDS011;42890;44.244;22.530;2024-02-26T06:36:10;145.30;;;79.63;;
56997;SDS011;42890;44.244;22.530;2024-02-26T06:38:36;146.38;;;83.80;;
56997;SDS011;42890;44.244;22.530;2024-02-26T06:41:02;160.52;;;93.07;;
56997;SDS011;42890;44.244;22.530;2024-02-26T06:43:28;184.30;;;99.07;;
56997;SDS011;42890;44.244;22.530;2024-02-26T06:45:54;200.60;;;111.03;;
56997;SDS011;42890;44.244;22.530;2024-02-26T06:48:22;212.93;;;115.45;;
56997;SDS011;42890;44.244;22.530;2024-02-26T06:50:48;182.77;;;101.47;;
56997;SDS011;42890;44.244;22.530;2024-02-26T06:53:14;173.55;;;95.80;;
56997;SDS011;42890;44.244;22.530;2024-02-26T06:55:41;156.88;;;86.55;;
56997;SDS011;42890;44.244;22.530;2024-02-26T06:58:08;124.75;;;73.95;;
56997;SDS011;42890;44.244;22.530;2024-02-26T07:00:34;126.90;;;66.35;;
56997;SDS011;42890;44.244;22.530;2024-02-26T07:03:00;127.72;;;64.88;;
56997;SDS011;42890;44.244;22.530;2024-02-26T07:05:27;146.18;;;66.18;;
56997;SDS011;42890;44.244;22.530;2024-02-26T07:07:53;116.35;;;62.67;;
56997;SDS011;42890;44.244;22.530;2024-02-26T07:10:19;132.23;;;69.88;;
56997;SDS011;42890;44.244;22.530;2024-02-26T07:12:46;180.93;;;81.70;;
56997;SDS011;42890;44.244;22.530;2024-02-26T07:15:12;181.30;;;84.20;;
56997;SDS011;42890;44.244;22.530;2024-02-26T07:17:38;191.15;;;84.70;;
56997;SDS011;42890;44.244;22.530;2024-02-26T07:20:12;175.95;;;77.32;;
56997;SDS011;42890;44.244;22.530;2024-02-26T07:22:38;184.75;;;80.43;;
56997;SDS011;42890;44.244;22.530;2024-02-26T07:25:04;168.55;;;74.53;;
56997;SDS011;42890;44.244;22.530;2024-02-26T07:27:33;177.02;;;79.70;;
56997;SDS011;42890;44.244;22.530;2024-02-26T07:29:59;165.82;;;75.03;;
56997;SDS011;42890;44.244;22.530;2024-02-26T07:32:25;172.88;;;73.40;;
56997;SDS011;42890;44.244;22.530;2024-02-26T07:34:51;168.40;;;80.45;;
56997;SDS011;42890;44.244;22.530;2024-02-26T07:37:17;176.43;;;82.53;;
56997;SDS011;42890;44.244;22.530;2024-02-26T07:39:43;204.52;;;87.50;;
56997;SDS011;42890;44.244;22.530;2024-02-26T07:42:10;170.85;;;76.18;;
56997;SDS011;42890;44.244;22.530;2024-02-26T07:44:36;161.25;;;73.07;;
56997;SDS011;42890;44.244;22.530;2024-02-26T07:47:02;154.63;;;73.35;;
56997;SDS011;42890;44.244;22.530;2024-02-26T07:49:28;159.48;;;74.95;;
56997;SDS011;42890;44.244;22.530;2024-02-26T07:51:54;167.77;;;76.35;;
56997;SDS011;42890;44.244;22.530;2024-02-26T07:54:23;160.45;;;78.93;;
56997;SDS011;42890;44.244;22.530;2024-02-26T07:56:49;188.70;;;86.68;;
56997;SDS011;42890;44.244;22.530;2024-02-26T07:59:15;131.02;;;70.75;;
56997;SDS011;42890;44.244;22.530;2024-02-26T08:01:41;106.88;;;60.92;;
56997;SDS011;42890;44.244;22.530;2024-02-26T08:04:08;68.78;;;52.13;;
56997;SDS011;42890;44.244;22.530;2024-02-26T08:06:34;55.60;;;45.55;;
56997;SDS011;42890;44.244;22.530;2024-02-26T08:09:00;45.63;;;39.22;;
56997;SDS011;42890;44.244;22.530;2024-02-26T08:11:26;44.30;;;38.80;;
56997;SDS011;42890;44.244;22.530;2024-02-26T08:13:53;49.60;;;35.33;;
56997;SDS011;42890;44.244;22.530;2024-02-26T08:16:19;40.45;;;36.17;;
56997;SDS011;42890;44.244;22.530;2024-02-26T08:18:45;44.47;;;34.97;;
56997;SDS011;42890;44.244;22.530;2024-02-26T08:21:11;39.40;;;35.45;;
56997;SDS011;42890;44.244;22.530;2024-02-26T08:23:37;38.90;;;33.08;;
56997;SDS011;42890;44.244;22.530;2024-02-26T08:26:03;33.45;;;29.85;;
56997;SDS011;42890;44.244;22.530;2024-02-26T08:28:32;41.65;;;30.38;;
56997;SDS011;42890;44.244;22.530;2024-02-26T08:30:58;35.20;;;31.52;;
56997;SDS011;42890;44.244;22.530;2024-02-26T08:33:24;36.20;;;31.20;;
56997;SDS011;42890;44.244;22.530;2024-02-26T08:35:50;36.13;;;30.10;;
56997;SDS011;42890;44.244;22.530;2024-02-26T08:38:16;33.35;;;29.92;;
56997;SDS011;42890;44.244;22.530;2024-02-26T08:40:42;37.17;;;33.63;;
56997;SDS011;42890;44.244;22.530;2024-02-26T08:43:08;35.50;;;32.05;;
56997;SDS011;42890;44.244;22.530;2024-02-26T08:45:34;35.78;;;31.90;;
56997;SDS011;42890;44.244;22.530;2024-02-26T08:48:01;38.20;;;34.50;;
56997;SDS011;42890;44.244;22.530;2024-02-26T08:50:27;37.83;;;34.08;;
56997;SDS011;42890;44.244;22.530;2024-02-26T08:52:53;37.63;;;34.03;;
56997;SDS011;42890;44.244;22.530;2024-02-26T08:55:19;40.85;;;36.38;;
56997;SDS011;42890;44.244;22.530;2024-02-26T08:57:45;39.53;;;35.38;;
56997;SDS011;42890;44.244;22.530;2024-02-26T09:00:11;36.03;;;31.38;;
56997;SDS011;42890;44.244;22.530;2024-02-26T09:02:38;42.53;;;33.65;;
56997;SDS011;42890;44.244;22.530;2024-02-26T09:05:04;39.45;;;35.38;;
56997;SDS011;42890;44.244;22.530;2024-02-26T09:07:31;38.88;;;34.88;;
56997;SDS011;42890;44.244;22.530;2024-02-26T09:09:57;41.60;;;37.28;;
56997;SDS011;42890;44.244;22.530;2024-02-26T09:12:23;41.30;;;36.60;;
56997;SDS011;42890;44.244;22.530;2024-02-26T09:14:49;39.85;;;35.70;;
56997;SDS011;42890;44.244;22.530;2024-02-26T09:17:15;41.88;;;36.97;;
56997;SDS011;42890;44.244;22.530;2024-02-26T09:19:41;42.55;;;38.08;;
56997;SDS011;42890;44.244;22.530;2024-02-26T09:22:09;53.92;;;41.15;;
56997;SDS011;42890;44.244;22.530;2024-02-26T09:24:35;42.28;;;38.28;;
56997;SDS011;42890;44.244;22.530;2024-02-26T09:27:02;43.17;;;38.95;;
56997;SDS011;42890;44.244;22.530;2024-02-26T09:29:28;43.33;;;39.05;;
56997;SDS011;42890;44.244;22.530;2024-02-26T09:31:54;42.92;;;38.92;;
56997;SDS011;42890;44.244;22.530;2024-02-26T09:34:20;44.10;;;39.75;;
56997;SDS011;42890;44.244;22.530;2024-02-26T09:36:46;47.08;;;42.38;;
56997;SDS011;42890;44.244;22.530;2024-02-26T09:39:12;45.80;;;41.60;;
56997;SDS011;42890;44.244;22.530;2024-02-26T09:41:39;49.00;;;43.90;;
56997;SDS011;42890;44.244;22.530;2024-02-26T09:44:06;50.25;;;45.50;;
56997;SDS011;42890;44.244;22.530;2024-02-26T09:46:33;56.25;;;50.78;;
56997;SDS011;42890;44.244;22.530;2024-02-26T09:48:59;48.97;;;44.28;;
56997;SDS011;42890;44.244;22.530;2024-02-26T09:51:25;49.70;;;44.97;;
56997;SDS011;42890;44.244;22.530;2024-02-26T09:53:52;46.03;;;41.75;;
56997;SDS011;42890;44.244;22.530;2024-02-26T09:56:18;48.10;;;43.08;;
56997;SDS011;42890;44.244;22.530;2024-02-26T09:58:44;59.03;;;53.58;;
56997;SDS011;42890;44.244;22.530;2024-02-26T10:01:16;49.10;;;44.50;;
56997;SDS011;42890;44.244;22.530;2024-02-26T10:03:42;47.88;;;42.80;;
56997;SDS011;42890;44.244;22.530;2024-02-26T10:06:12;48.58;;;43.90;;
56997;SDS011;42890;44.244;22.530;2024-02-26T10:08:39;50.17;;;45.47;;
56997;SDS011;42890;44.244;22.530;2024-02-26T10:11:06;49.50;;;44.70;;
56997;SDS011;42890;44.244;22.530;2024-02-26T10:13:34;50.42;;;45.38;;
56997;SDS011;42890;44.244;22.530;2024-02-26T10:16:01;52.20;;;47.13;;
56997;SDS011;42890;44.244;22.530;2024-02-26T10:18:44;70.60;;;52.63;;
56997;SDS011;42890;44.244;22.530;2024-02-26T10:21:10;59.60;;;53.47;;
56997;SDS011;42890;44.244;22.530;2024-02-26T10:23:36;53.15;;;48.15;;
56997;SDS011;42890;44.244;22.530;2024-02-26T10:26:03;49.08;;;44.50;;
56997;SDS011;42890;44.244;22.530;2024-02-26T10:28:29;48.05;;;43.75;;
56997;SDS011;42890;44.244;22.530;2024-02-26T10:30:55;50.95;;;45.95;;
56997;SDS011;42890;44.244;22.530;2024-02-26T10:33:22;52.30;;;47.28;;
56997;SDS011;42890;44.244;22.530;2024-02-26T10:35:48;60.00;;;53.88;;
56997;SDS011;42890;44.244;22.530;2024-02-26T10:38:14;53.22;;;47.80;;
56997;SDS011;42890;44.244;22.530;2024-02-26T10:40:45;51.72;;;46.40;;
56997;SDS011;42890;44.244;22.530;2024-02-26T10:43:11;47.08;;;42.95;;
56997;SDS011;42890;44.244;22.530;2024-02-26T10:45:39;47.80;;;43.40;;
56997;SDS011;42890;44.244;22.530;2024-02-26T10:48:12;48.00;;;43.53;;
56997;SDS011;42890;44.244;22.530;2024-02-26T10:50:38;49.33;;;44.80;;
56997;SDS011;42890;44.244;22.530;2024-02-26T10:53:09;50.35;;;45.65;;
56997;SDS011;42890;44.244;22.530;2024-02-26T10:55:36;50.05;;;44.70;;
56997;SDS011;42890;44.244;22.530;2024-02-26T10:58:03;48.03;;;43.55;;
56997;SDS011;42890;44.244;22.530;2024-02-26T11:00:30;48.22;;;43.42;;
56997;SDS011;42890;44.244;22.530;2024-02-26T11:02:56;48.35;;;43.97;;
56997;SDS011;42890;44.244;22.530;2024-02-26T11:05:26;51.72;;;46.25;;
56997;SDS011;42890;44.244;22.530;2024-02-26T11:07:53;70.07;;;61.67;;
56997;SDS011;42890;44.244;22.530;2024-02-26T11:10:20;55.90;;;50.20;;
56997;SDS011;42890;44.244;22.530;2024-02-26T11:12:46;52.25;;;46.90;;
56997;SDS011;42890;44.244;22.530;2024-02-26T11:15:13;49.00;;;44.42;;
56997;SDS011;42890;44.244;22.530;2024-02-26T11:17:40;51.53;;;46.53;;
56997;SDS011;42890;44.244;22.530;2024-02-26T11:20:09;50.85;;;45.85;;
56997;SDS011;42890;44.244;22.530;2024-02-26T11:22:37;53.50;;;48.40;;
56997;SDS011;42890;44.244;22.530;2024-02-26T11:25:04;52.65;;;46.55;;
56997;SDS011;42890;44.244;22.530;2024-02-26T11:27:32;48.53;;;43.70;;
56997;SDS011;42890;44.244;22.530;2024-02-26T11:30:01;50.45;;;45.15;;
56997;SDS011;42890;44.244;22.530;2024-02-26T11:32:30;47.25;;;42.67;;
56997;SDS011;42890;44.244;22.530;2024-02-26T11:35:00;46.97;;;42.53;;
56997;SDS011;42890;44.244;22.530;2024-02-26T11:37:26;49.53;;;44.78;;
56997;SDS011;42890;44.244;22.530;2024-02-26T11:39:52;67.70;;;56.72;;
56997;SDS011;42890;44.244;22.530;2024-02-26T11:42:22;47.97;;;43.38;;
56997;SDS011;42890;44.244;22.530;2024-02-26T11:44:49;46.33;;;41.92;;
56997;SDS011;42890;44.244;22.530;2024-02-26T11:47:20;45.35;;;41.30;;
56997;SDS011;42890;44.244;22.530;2024-02-26T11:49:46;48.05;;;43.30;;
56997;SDS011;42890;44.244;22.530;2024-02-26T11:52:13;49.55;;;44.92;;
56997;SDS011;42890;44.244;22.530;2024-02-26T11:54:52;50.00;;;43.10;;
56997;SDS011;42890;44.244;22.530;2024-02-26T11:57:22;47.17;;;42.47;;
56997;SDS011;42890;44.244;22.530;2024-02-26T11:59:48;46.15;;;41.55;;
56997;SDS011;42890;44.244;22.530;2024-02-26T12:05:01;45.38;;;40.67;;
56997;SDS011;42890;44.244;22.530;2024-02-26T12:07:27;47.88;;;42.75;;
56997;SDS011;42890;44.244;22.530;2024-02-26T12:09:56;53.05;;;47.33;;
56997;SDS011;42890;44.244;22.530;2024-02-26T12:12:39;51.75;;;45.88;;
56997;SDS011;42890;44.244;22.530;2024-02-26T12:15:05;45.08;;;40.90;;
56997;SDS011;42890;44.244;22.530;2024-02-26T12:17:33;48.70;;;43.50;;
56997;SDS011;42890;44.244;22.530;2024-02-26T12:20:10;48.47;;;42.00;;
56997;SDS011;42890;44.244;22.530;2024-02-26T12:22:37;43.88;;;39.55;;
56997;SDS011;42890;44.244;22.530;2024-02-26T12:25:04;42.30;;;38.28;;
56997;SDS011;42890;44.244;22.530;2024-02-26T12:27:31;54.22;;;48.45;;
56997;SDS011;42890;44.244;22.530;2024-02-26T12:29:58;42.17;;;37.88;;
56997;SDS011;42890;44.244;22.530;2024-02-26T12:32:24;59.40;;;48.22;;
56997;SDS011;42890;44.244;22.530;2024-02-26T12:34:51;43.10;;;37.72;;
56997;SDS011;42890;44.244;22.530;2024-02-26T12:37:17;44.90;;;40.13;;
56997;SDS011;42890;44.244;22.530;2024-02-26T12:39:44;41.10;;;37.10;;
56997;SDS011;42890;44.244;22.530;2024-02-26T12:42:11;42.42;;;38.28;;
56997;SDS011;42890;44.244;22.530;2024-02-26T12:44:37;42.38;;;38.13;;
56997;SDS011;42890;44.244;22.530;2024-02-26T12:47:04;44.63;;;39.83;;
56997;SDS011;42890;44.244;22.530;2024-02-26T12:49:30;47.58;;;42.72;;
56997;SDS011;42890;44.244;22.530;2024-02-26T12:51:57;48.20;;;43.63;;
56997;SDS011;42890;44.244;22.530;2024-02-26T12:54:35;51.33;;;45.90;;
56997;SDS011;42890;44.244;22.530;2024-02-26T12:57:04;59.22;;;52.80;;
56997;SDS011;42890;44.244;22.530;2024-02-26T12:59:32;47.03;;;42.33;;
56997;SDS011;42890;44.244;22.530;2024-02-26T13:02:17;45.95;;;41.10;;
56997;SDS011;42890;44.244;22.530;2024-02-26T13:04:44;41.00;;;37.15;;
56997;SDS011;42890;44.244;22.530;2024-02-26T13:07:10;45.85;;;36.22;;
56997;SDS011;42890;44.244;22.530;2024-02-26T13:09:37;39.83;;;36.30;;
56997;SDS011;42890;44.244;22.530;2024-02-26T13:12:04;40.35;;;36.67;;
56997;SDS011;42890;44.244;22.530;2024-02-26T13:14:31;39.80;;;35.75;;
56997;SDS011;42890;44.244;22.530;2024-02-26T13:16:59;47.25;;;42.45;;
56997;SDS011;42890;44.244;22.530;2024-02-26T13:19:25;46.88;;;42.17;;
56997;SDS011;42890;44.244;22.530;2024-02-26T13:21:53;45.15;;;40.75;;
56997;SDS011;42890;44.244;22.530;2024-02-26T13:24:19;49.13;;;37.90;;
56997;SDS011;42890;44.244;22.530;2024-02-26T13:26:47;50.22;;;43.60;;
56997;SDS011;42890;44.244;22.530;2024-02-26T13:29:17;47.63;;;43.08;;
56997;SDS011;42890;44.244;22.530;2024-02-26T13:31:43;50.15;;;42.33;;
56997;SDS011;42890;44.244;22.530;2024-02-26T13:34:09;43.63;;;39.25;;
56997;SDS011;42890;44.244;22.530;2024-02-26T13:36:36;46.42;;;41.92;;
56997;SDS011;42890;44.244;22.530;2024-02-26T13:39:02;42.33;;;38.08;;
56997;SDS011;42890;44.244;22.530;2024-02-26T13:41:30;41.72;;;37.63;;
56997;SDS011;42890;44.244;22.530;2024-02-26T13:43:57;45.10;;;40.28;;
56997;SDS011;42890;44.244;22.530;2024-02-26T13:46:23;47.35;;;40.67;;
56997;SDS011;42890;44.244;22.530;2024-02-26T13:48:49;45.17;;;40.45;;
56997;SDS011;42890;44.244;22.530;2024-02-26T13:51:15;58.53;;;44.42;;
56997;SDS011;42890;44.244;22.530;2024-02-26T13:53:42;42.53;;;38.72;;
56997;SDS011;42890;44.244;22.530;2024-02-26T13:56:09;49.60;;;44.28;;
56997;SDS011;42890;44.244;22.530;2024-02-26T13:58:35;50.53;;;45.05;;
56997;SDS011;42890;44.244;22.530;2024-02-26T14:01:02;49.92;;;44.55;;
56997;SDS011;42890;44.244;22.530;2024-02-26T14:03:29;44.28;;;39.85;;
56997;SDS011;42890;44.244;22.530;2024-02-26T14:05:55;51.97;;;45.28;;